sensor_id;sensor_type;location;lat;lon;timestamp;P1;durP1;ratioP1;P2;durP2;ratioP2
22068;SDS011;13887;57.196;-2.100;2022-07-06T00:01:49;12.17;;;11.67;;
22068;SDS011;13887;57.196;-2.100;2022-07-06T00:04:17;12.47;;;11.97;;
22068;SDS011;13887;57.196;-2.100;2022-07-06T00:06:44;12.40;;;11.77;;
22068;SDS011;13887;57.196;-2.100;2022-07-06T00:09:10;12.20;;;11.70;;
22068;SDS011;13887;57.196;-2.100;2022-07-06T00:11:37;12.70;;;12.00;;
22068;SDS011;13887;57.196;-2.100;2022-07-06T00:14:04;12.40;;;11.90;;
22068;SDS011;13887;57.196;-2.100;2022-07-06T00:16:30;12.07;;;11.47;;
22068;SDS011;13887;57.196;-2.100;2022-07-06T00:18:57;12.00;;;11.60;;
22068;SDS011;13887;57.196;-2.100;2022-07-06T00:21:23;12.60;;;11.90;;
22068;SDS011;13887;57.196;-2.100;2022-07-06T00:23:49;12.73;;;12.20;;
22068;SDS011;13887;57.196;-2.100;2022-07-06T00:26:18;12.63;;;12.03;;
22068;SDS011;13887;57.196;-2.100;2022-07-06T00:28:45;12.60;;;12.10;;
22068;SDS011;13887;57.196;-2.100;2022-07-06T00:31:11;12.17;;;11.67;;
22068;SDS011;13887;57.196;-2.100;2022-07-06T00:33:38;12.70;;;12.20;;
22068;SDS011;13887;57.196;-2.100;2022-07-06T00:36:04;12.80;;;12.30;;
22068;SDS011;13887;57.196;-2.100;2022-07-06T00:38:30;12.50;;;12.00;;
22068;SDS011;13887;57.196;-2.100;2022-07-06T00:40:57;12.30;;;11.80;;
22068;SDS011;13887;57.196;-2.100;2022-07-06T00:43:23;13.10;;;12.30;;
22068;SDS011;13887;57.196;-2.100;2022-07-06T00:45:49;12.90;;;12.40;;
22068;SDS011;13887;57.196;-2.100;2022-07-06T00:48:16;12.97;;;12.37;;
22068;SDS011;13887;57.196;-2.100;2022-07-06T00:50:42;13.03;;;12.30;;
22068;SDS011;13887;57.196;-2.100;2022-07-06T00:53:08;12.97;;;12.27;;
22068;SDS011;13887;57.196;-2.100;2022-07-06T00:55:36;12.30;;;11.80;;
22068;SDS011;13887;57.196;-2.100;2022-07-06T00:58:07;13.10;;;12.50;;
22068;SDS011;13887;57.196;-2.100;2022-07-06T01:00:35;13.47;;;12.67;;
22068;SDS011;13887;57.196;-2.100;2022-07-06T01:03:01;12.87;;;12.43;;
22068;SDS011;13887;57.196;-2.100;2022-07-06T01:05:28;12.73;;;12.17;;
22068;SDS011;13887;57.196;-2.100;2022-07-06T01:07:55;13.23;;;12.57;;
22068;SDS011;13887;57.196;-2.100;2022-07-06T01:10:22;13.50;;;12.83;;
22068;SDS011;13887;57.196;-2.100;2022-07-06T01:12:49;13.33;;;12.63;;
22068;SDS011;13887;57.196;-2.100;2022-07-06T01:15:17;13.60;;;13.03;;
22068;SDS011;13887;57.196;-2.100;2022-07-06T01:17:45;13.97;;;13.23;;
22068;SDS011;13887;57.196;-2.100;2022-07-06T01:20:15;12.90;;;12.40;;
22068;SDS011;13887;57.196;-2.100;2022-07-06T01:22:49;12.90;;;12.40;;
22068;SDS011;13887;57.196;-2.100;2022-07-06T01:25:16;13.07;;;12.47;;
22068;SDS011;13887;57.196;-2.100;2022-07-06T01:27:44;13.27;;;12.77;;
22068;SDS011;13887;57.196;-2.100;2022-07-06T01:30:11;13.37;;;12.67;;
22068;SDS011;13887;57.196;-2.100;2022-07-06T01:32:40;13.20;;;12.60;;
22068;SDS011;13887;57.196;-2.100;2022-07-06T01:35:07;13.27;;;12.73;;
22068;SDS011;13887;57.196;-2.100;2022-07-06T01:37:35;13.07;;;12.57;;
22068;SDS011;13887;57.196;-2.100;2022-07-06T01:40:06;13.03;;;12.53;;
22068;SDS011;13887;57.196;-2.100;2022-07-06T01:42:34;13.40;;;12.70;;
22068;SDS011;13887;57.196;-2.100;2022-07-06T01:45:01;13.07;;;12.57;;
22068;SDS011;13887;57.196;-2.100;2022-07-06T01:47:28;13.20;;;12.60;;
22068;SDS011;13887;57.196;-2.100;2022-07-06T01:49:57;13.40;;;12.80;;
22068;SDS011;13887;57.196;-2.100;2022-07-06T01:52:26;13.50;;;12.90;;
22068;SDS011;13887;57.196;-2.100;2022-07-06T01:54:53;13.63;;;12.97;;
22068;SDS011;13887;57.196;-2.100;2022-07-06T01:57:21;13.77;;;13.17;;
22068;SDS011;13887;57.196;-2.100;2022-07-06T01:59:48;13.83;;;13.17;;
22068;SDS011;13887;57.196;-2.100;2022-07-06T02:02:16;13.90;;;13.10;;
22068;SDS011;13887;57.196;-2.100;2022-07-06T02:04:43;12.93;;;12.40;;
22068;SDS011;13887;57.196;-2.100;2022-07-06T02:07:10;13.17;;;12.53;;
22068;SDS011;13887;57.196;-2.100;2022-07-06T02:09:36;13.40;;;12.80;;
22068;SDS011;13887;57.196;-2.100;2022-07-06T02:12:02;13.83;;;13.13;;
22068;SDS011;13887;57.196;-2.100;2022-07-06T02:14:29;14.00;;;13.30;;
22068;SDS011;13887;57.196;-2.100;2022-07-06T02:16:56;13.47;;;12.97;;
22068;SDS011;13887;57.196;-2.100;2022-07-06T02:19:23;13.53;;;13.00;;
22068;SDS011;13887;57.196;-2.100;2022-07-06T02:21:49;13.27;;;12.67;;
22068;SDS011;13887;57.196;-2.100;2022-07-06T02:24:15;13.47;;;12.87;;
22068;SDS011;13887;57.196;-2.100;2022-07-06T02:26:42;13.47;;;12.80;;
22068;SDS011;13887;57.196;-2.100;2022-07-06T02:29:09;13.20;;;12.60;;
22068;SDS011;13887;57.196;-2.100;2022-07-06T02:31:35;13.17;;;12.67;;
22068;SDS011;13887;57.196;-2.100;2022-07-06T02:34:01;13.63;;;13.03;;
22068;SDS011;13887;57.196;-2.100;2022-07-06T02:36:28;12.80;;;12.30;;
22068;SDS011;13887;57.196;-2.100;2022-07-06T02:38:54;12.87;;;12.37;;
22068;SDS011;13887;57.196;-2.100;2022-07-06T02:41:20;12.90;;;12.43;;
22068;SDS011;13887;57.196;-2.100;2022-07-06T02:43:47;13.23;;;12.73;;
22068;SDS011;13887;57.196;-2.100;2022-07-06T02:46:15;13.30;;;12.80;;
22068;SDS011;13887;57.196;-2.100;2022-07-06T02:48:42;12.87;;;12.47;;
22068;SDS011;13887;57.196;-2.100;2022-07-06T02:51:09;13.13;;;12.63;;
22068;SDS011;13887;57.196;-2.100;2022-07-06T02:53:35;13.53;;;12.93;;
22068;SDS011;13887;57.196;-2.100;2022-07-06T02:56:01;13.33;;;12.83;;
22068;SDS011;13887;57.196;-2.100;2022-07-06T02:58:29;13.37;;;12.87;;
22068;SDS011;13887;57.196;-2.100;2022-07-06T03:00:55;13.70;;;13.20;;
22068;SDS011;13887;57.196;-2.100;2022-07-06T03:03:21;13.27;;;12.73;;
22068;SDS011;13887;57.196;-2.100;2022-07-06T03:05:48;13.40;;;12.90;;
22068;SDS011;13887;57.196;-2.100;2022-07-06T03:08:17;13.30;;;12.60;;
22068;SDS011;13887;57.196;-2.100;2022-07-06T03:10:43;13.20;;;12.50;;
22068;SDS011;13887;57.196;-2.100;2022-07-06T03:13:10;13.07;;;12.47;;
22068;SDS011;13887;57.196;-2.100;2022-07-06T03:15:36;13.80;;;13.17;;
22068;SDS011;13887;57.196;-2.100;2022-07-06T03:18:03;13.83;;;13.23;;
22068;SDS011;13887;57.196;-2.100;2022-07-06T03:20:30;13.97;;;13.37;;
22068;SDS011;13887;57.196;-2.100;2022-07-06T03:22:56;13.60;;;13.10;;
22068;SDS011;13887;57.196;-2.100;2022-07-06T03:25:22;13.73;;;13.23;;
22068;SDS011;13887;57.196;-2.100;2022-07-06T03:27:49;13.87;;;13.27;;
22068;SDS011;13887;57.196;-2.100;2022-07-06T03:30:18;14.07;;;13.47;;
22068;SDS011;13887;57.196;-2.100;2022-07-06T03:32:49;13.70;;;13.20;;
22068;SDS011;13887;57.196;-2.100;2022-07-06T03:35:18;13.87;;;13.37;;
22068;SDS011;13887;57.196;-2.100;2022-07-06T03:37:45;13.73;;;13.20;;
22068;SDS011;13887;57.196;-2.100;2022-07-06T03:40:13;13.77;;;13.27;;
22068;SDS011;13887;57.196;-2.100;2022-07-06T03:42:41;13.80;;;13.20;;
22068;SDS011;13887;57.196;-2.100;2022-07-06T03:45:09;13.70;;;13.20;;
22068;SDS011;13887;57.196;-2.100;2022-07-06T03:47:35;13.60;;;13.10;;
22068;SDS011;13887;57.196;-2.100;2022-07-06T03:50:02;13.70;;;13.20;;
22068;SDS011;13887;57.196;-2.100;2022-07-06T03:52:29;13.97;;;13.37;;
22068;SDS011;13887;57.196;-2.100;2022-07-06T03:54:56;13.90;;;13.40;;
22068;SDS011;13887;57.196;-2.100;2022-07-06T03:57:26;13.93;;;13.30;;
22068;SDS011;13887;57.196;-2.100;2022-07-06T03:59:55;14.33;;;13.63;;
22068;SDS011;13887;57.196;-2.100;2022-07-06T04:02:23;13.07;;;12.57;;
22068;SDS011;13887;57.196;-2.100;2022-07-06T04:04:51;13.47;;;12.97;;
22068;SDS011;13887;57.196;-2.100;2022-07-06T04:07:17;13.57;;;13.07;;
22068;SDS011;13887;57.196;-2.100;2022-07-06T04:09:44;13.67;;;13.17;;
22068;SDS011;13887;57.196;-2.100;2022-07-06T04:12:10;13.17;;;12.67;;
22068;SDS011;13887;57.196;-2.100;2022-07-06T04:14:41;13.27;;;12.77;;
22068;SDS011;13887;57.196;-2.100;2022-07-06T04:17:07;13.43;;;12.93;;
22068;SDS011;13887;57.196;-2.100;2022-07-06T04:19:53;13.80;;;13.03;;
22068;SDS011;13887;57.196;-2.100;2022-07-06T04:22:20;13.77;;;13.17;;
22068;SDS011;13887;57.196;-2.100;2022-07-06T04:24:46;13.57;;;13.07;;
22068;SDS011;13887;57.196;-2.100;2022-07-06T04:27:12;13.63;;;12.93;;
22068;SDS011;13887;57.196;-2.100;2022-07-06T04:29:39;13.50;;;13.00;;
22068;SDS011;13887;57.196;-2.100;2022-07-06T04:32:05;13.43;;;12.93;;
22068;SDS011;13887;57.196;-2.100;2022-07-06T04:34:32;13.30;;;12.80;;
22068;SDS011;13887;57.196;-2.100;2022-07-06T04:36:58;13.27;;;12.77;;
22068;SDS011;13887;57.196;-2.100;2022-07-06T04:39:24;12.77;;;12.37;;
22068;SDS011;13887;57.196;-2.100;2022-07-06T04:41:51;13.63;;;13.13;;
22068;SDS011;13887;57.196;-2.100;2022-07-06T04:44:18;12.70;;;12.30;;
22068;SDS011;13887;57.196;-2.100;2022-07-06T04:46:44;13.30;;;12.70;;
22068;SDS011;13887;57.196;-2.100;2022-07-06T04:49:11;12.67;;;12.27;;
22068;SDS011;13887;57.196;-2.100;2022-07-06T04:51:38;12.90;;;12.40;;
22068;SDS011;13887;57.196;-2.100;2022-07-06T04:54:05;13.23;;;12.73;;
22068;SDS011;13887;57.196;-2.100;2022-07-06T04:56:32;12.83;;;12.43;;
22068;SDS011;13887;57.196;-2.100;2022-07-06T04:58:59;13.33;;;12.83;;
22068;SDS011;13887;57.196;-2.100;2022-07-06T05:01:25;12.50;;;12.10;;
22068;SDS011;13887;57.196;-2.100;2022-07-06T05:03:51;12.87;;;12.40;;
22068;SDS011;13887;57.196;-2.100;2022-07-06T05:06:21;12.87;;;12.47;;
22068;SDS011;13887;57.196;-2.100;2022-07-06T05:08:47;12.53;;;12.13;;
22068;SDS011;13887;57.196;-2.100;2022-07-06T05:11:14;13.10;;;12.60;;
22068;SDS011;13887;57.196;-2.100;2022-07-06T05:13:41;12.87;;;12.47;;
22068;SDS011;13887;57.196;-2.100;2022-07-06T05:16:07;12.90;;;12.50;;
22068;SDS011;13887;57.196;-2.100;2022-07-06T05:18:34;12.50;;;12.10;;
22068;SDS011;13887;57.196;-2.100;2022-07-06T05:21:02;11.47;;;11.07;;
22068;SDS011;13887;57.196;-2.100;2022-07-06T05:23:29;11.87;;;11.47;;
22068;SDS011;13887;57.196;-2.100;2022-07-06T05:25:56;12.17;;;11.77;;
22068;SDS011;13887;57.196;-2.100;2022-07-06T05:28:23;12.60;;;12.20;;
22068;SDS011;13887;57.196;-2.100;2022-07-06T05:30:50;12.80;;;12.40;;
22068;SDS011;13887;57.196;-2.100;2022-07-06T05:33:17;12.83;;;12.33;;
22068;SDS011;13887;57.196;-2.100;2022-07-06T05:35:44;12.00;;;11.60;;
22068;SDS011;13887;57.196;-2.100;2022-07-06T05:38:23;12.20;;;11.80;;
22068;SDS011;13887;57.196;-2.100;2022-07-06T05:40:51;12.00;;;11.60;;
22068;SDS011;13887;57.196;-2.100;2022-07-06T05:43:17;12.07;;;11.67;;
22068;SDS011;13887;57.196;-2.100;2022-07-06T05:45:44;11.93;;;11.53;;
22068;SDS011;13887;57.196;-2.100;2022-07-06T05:48:10;11.93;;;11.53;;
22068;SDS011;13887;57.196;-2.100;2022-07-06T05:50:56;13.17;;;12.77;;
22068;SDS011;13887;57.196;-2.100;2022-07-06T05:53:23;13.07;;;12.67;;
22068;SDS011;13887;57.196;-2.100;2022-07-06T05:55:52;11.97;;;11.57;;
22068;SDS011;13887;57.196;-2.100;2022-07-06T05:58:19;12.67;;;12.27;;
22068;SDS011;13887;57.196;-2.100;2022-07-06T06:00:45;12.77;;;12.37;;
22068;SDS011;13887;57.196;-2.100;2022-07-06T06:03:16;12.37;;;11.97;;
22068;SDS011;13887;57.196;-2.100;2022-07-06T06:05:43;12.27;;;11.87;;
22068;SDS011;13887;57.196;-2.100;2022-07-06T06:08:12;12.40;;;12.00;;
22068;SDS011;13887;57.196;-2.100;2022-07-06T06:10:38;12.27;;;11.87;;
22068;SDS011;13887;57.196;-2.100;2022-07-06T06:13:08;12.53;;;12.13;;
22068;SDS011;13887;57.196;-2.100;2022-07-06T06:15:35;11.97;;;11.57;;
22068;SDS011;13887;57.196;-2.100;2022-07-06T06:18:03;11.87;;;11.47;;
22068;SDS011;13887;57.196;-2.100;2022-07-06T06:20:32;12.50;;;12.10;;
22068;SDS011;13887;57.196;-2.100;2022-07-06T06:22:58;12.50;;;12.10;;
22068;SDS011;13887;57.196;-2.100;2022-07-06T06:27:55;12.70;;;12.30;;
22068;SDS011;13887;57.196;-2.100;2022-07-06T06:30:21;12.37;;;11.97;;
22068;SDS011;13887;57.196;-2.100;2022-07-06T06:32:48;12.23;;;11.83;;
22068;SDS011;13887;57.196;-2.100;2022-07-06T06:35:14;12.03;;;11.63;;
22068;SDS011;13887;57.196;-2.100;2022-07-06T06:37:40;12.27;;;11.87;;
22068;SDS011;13887;57.196;-2.100;2022-07-06T06:40:07;12.47;;;12.07;;
22068;SDS011;13887;57.196;-2.100;2022-07-06T06:42:37;12.17;;;11.77;;
22068;SDS011;13887;57.196;-2.100;2022-07-06T06:45:07;12.53;;;11.97;;
22068;SDS011;13887;57.196;-2.100;2022-07-06T06:47:34;11.67;;;11.27;;
22068;SDS011;13887;57.196;-2.100;2022-07-06T06:50:00;12.40;;;12.00;;
22068;SDS011;13887;57.196;-2.100;2022-07-06T06:52:26;12.60;;;12.20;;
22068;SDS011;13887;57.196;-2.100;2022-07-06T06:55:08;11.87;;;11.47;;
22068;SDS011;13887;57.196;-2.100;2022-07-06T06:57:34;12.40;;;11.90;;
22068;SDS011;13887;57.196;-2.100;2022-07-06T07:00:01;12.20;;;11.70;;
22068;SDS011;13887;57.196;-2.100;2022-07-06T07:02:29;12.63;;;12.23;;
22068;SDS011;13887;57.196;-2.100;2022-07-06T07:04:55;12.23;;;11.83;;
22068;SDS011;13887;57.196;-2.100;2022-07-06T07:07:22;11.70;;;11.30;;
22068;SDS011;13887;57.196;-2.100;2022-07-06T07:09:48;11.97;;;11.57;;
22068;SDS011;13887;57.196;-2.100;2022-07-06T07:12:14;12.40;;;11.90;;
22068;SDS011;13887;57.196;-2.100;2022-07-06T07:14:43;12.47;;;12.00;;
22068;SDS011;13887;57.196;-2.100;2022-07-06T07:17:10;11.90;;;11.50;;
22068;SDS011;13887;57.196;-2.100;2022-07-06T07:19:37;12.00;;;11.50;;
22068;SDS011;13887;57.196;-2.100;2022-07-06T07:22:04;12.20;;;11.80;;
22068;SDS011;13887;57.196;-2.100;2022-07-06T07:24:30;12.40;;;12.00;;
22068;SDS011;13887;57.196;-2.100;2022-07-06T07:26:56;12.07;;;11.67;;
22068;SDS011;13887;57.196;-2.100;2022-07-06T07:29:23;11.77;;;11.37;;
22068;SDS011;13887;57.196;-2.100;2022-07-06T07:31:49;11.97;;;11.57;;
22068;SDS011;13887;57.196;-2.100;2022-07-06T07:34:15;12.10;;;11.70;;
22068;SDS011;13887;57.196;-2.100;2022-07-06T07:36:42;12.27;;;11.87;;
22068;SDS011;13887;57.196;-2.100;2022-07-06T07:39:09;12.30;;;11.90;;
22068;SDS011;13887;57.196;-2.100;2022-07-06T07:41:35;12.80;;;12.30;;
22068;SDS011;13887;57.196;-2.100;2022-07-06T07:44:01;12.50;;;12.10;;
22068;SDS011;13887;57.196;-2.100;2022-07-06T07:46:28;12.30;;;11.90;;
22068;SDS011;13887;57.196;-2.100;2022-07-06T07:48:54;12.27;;;11.87;;
22068;SDS011;13887;57.196;-2.100;2022-07-06T07:51:21;12.90;;;12.50;;
22068;SDS011;13887;57.196;-2.100;2022-07-06T07:53:47;12.03;;;11.63;;
22068;SDS011;13887;57.196;-2.100;2022-07-06T07:56:14;12.53;;;12.13;;
22068;SDS011;13887;57.196;-2.100;2022-07-06T07:58:40;12.73;;;12.27;;
22068;SDS011;13887;57.196;-2.100;2022-07-06T08:01:07;12.60;;;12.20;;
22068;SDS011;13887;57.196;-2.100;2022-07-06T08:03:33;12.97;;;12.47;;
22068;SDS011;13887;57.196;-2.100;2022-07-06T08:05:59;12.17;;;11.77;;
22068;SDS011;13887;57.196;-2.100;2022-07-06T08:08:26;12.37;;;11.97;;
22068;SDS011;13887;57.196;-2.100;2022-07-06T08:10:53;12.40;;;12.00;;
22068;SDS011;13887;57.196;-2.100;2022-07-06T08:13:39;11.87;;;11.47;;
22068;SDS011;13887;57.196;-2.100;2022-07-06T08:16:05;11.90;;;11.50;;
22068;SDS011;13887;57.196;-2.100;2022-07-06T08:18:32;12.30;;;11.90;;
22068;SDS011;13887;57.196;-2.100;2022-07-06T08:20:59;12.60;;;12.10;;
22068;SDS011;13887;57.196;-2.100;2022-07-06T08:23:46;12.43;;;12.03;;
22068;SDS011;13887;57.196;-2.100;2022-07-06T08:26:12;12.27;;;11.77;;
22068;SDS011;13887;57.196;-2.100;2022-07-06T08:28:43;12.00;;;11.60;;
22068;SDS011;13887;57.196;-2.100;2022-07-06T08:31:09;12.37;;;11.90;;
22068;SDS011;13887;57.196;-2.100;2022-07-06T08:33:56;12.83;;;12.37;;
22068;SDS011;13887;57.196;-2.100;2022-07-06T08:36:22;12.27;;;11.87;;
22068;SDS011;13887;57.196;-2.100;2022-07-06T08:38:49;12.00;;;11.60;;
22068;SDS011;13887;57.196;-2.100;2022-07-06T08:41:16;12.57;;;12.17;;
22068;SDS011;13887;57.196;-2.100;2022-07-06T08:43:50;12.10;;;11.70;;
22068;SDS011;13887;57.196;-2.100;2022-07-06T08:46:17;12.07;;;11.57;;
22068;SDS011;13887;57.196;-2.100;2022-07-06T08:48:45;12.07;;;11.60;;
22068;SDS011;13887;57.196;-2.100;2022-07-06T08:51:13;12.07;;;11.67;;
22068;SDS011;13887;57.196;-2.100;2022-07-06T08:53:41;11.63;;;11.23;;
22068;SDS011;13887;57.196;-2.100;2022-07-06T08:56:08;11.87;;;11.47;;
22068;SDS011;13887;57.196;-2.100;2022-07-06T08:58:34;11.50;;;11.10;;
22068;SDS011;13887;57.196;-2.100;2022-07-06T09:01:01;11.50;;;11.10;;
22068;SDS011;13887;57.196;-2.100;2022-07-06T09:03:27;11.60;;;11.20;;
22068;SDS011;13887;57.196;-2.100;2022-07-06T09:05:58;11.80;;;11.40;;
22068;SDS011;13887;57.196;-2.100;2022-07-06T09:08:27;11.20;;;10.80;;
22068;SDS011;13887;57.196;-2.100;2022-07-06T09:10:56;11.60;;;11.20;;
22068;SDS011;13887;57.196;-2.100;2022-07-06T09:13:23;11.80;;;11.40;;
22068;SDS011;13887;57.196;-2.100;2022-07-06T09:15:49;11.93;;;11.53;;
22068;SDS011;13887;57.196;-2.100;2022-07-06T09:18:35;11.47;;;11.07;;
22068;SDS011;13887;57.196;-2.100;2022-07-06T09:21:03;11.90;;;11.50;;
22068;SDS011;13887;57.196;-2.100;2022-07-06T09:23:31;11.90;;;11.50;;
22068;SDS011;13887;57.196;-2.100;2022-07-06T09:25:59;12.20;;;11.60;;
22068;SDS011;13887;57.196;-2.100;2022-07-06T09:28:41;11.63;;;11.20;;
22068;SDS011;13887;57.196;-2.100;2022-07-06T09:31:10;11.43;;;11.03;;
22068;SDS011;13887;57.196;-2.100;2022-07-06T09:36:36;11.93;;;11.53;;
22068;SDS011;13887;57.196;-2.100;2022-07-06T09:41:47;12.00;;;11.60;;
22068;SDS011;13887;57.196;-2.100;2022-07-06T09:44:18;12.13;;;11.73;;
22068;SDS011;13887;57.196;-2.100;2022-07-06T09:46:46;11.50;;;11.10;;
22068;SDS011;13887;57.196;-2.100;2022-07-06T09:49:17;11.80;;;11.40;;
22068;SDS011;13887;57.196;-2.100;2022-07-06T09:51:47;11.60;;;11.20;;
22068;SDS011;13887;57.196;-2.100;2022-07-06T09:54:14;11.60;;;11.20;;
22068;SDS011;13887;57.196;-2.100;2022-07-06T09:56:44;11.80;;;11.30;;
22068;SDS011;13887;57.196;-2.100;2022-07-06T09:59:20;11.60;;;11.20;;
22068;SDS011;13887;57.196;-2.100;2022-07-06T10:01:51;11.90;;;11.50;;
22068;SDS011;13887;57.196;-2.100;2022-07-06T10:04:19;12.20;;;11.80;;
22068;SDS011;13887;57.196;-2.100;2022-07-06T10:06:46;12.40;;;12.00;;
22068;SDS011;13887;57.196;-2.100;2022-07-06T10:09:13;12.33;;;11.83;;
22068;SDS011;13887;57.196;-2.100;2022-07-06T10:11:54;12.20;;;11.80;;
22068;SDS011;13887;57.196;-2.100;2022-07-06T10:14:28;12.20;;;11.70;;
22068;SDS011;13887;57.196;-2.100;2022-07-06T10:16:57;11.47;;;11.07;;
22068;SDS011;13887;57.196;-2.100;2022-07-06T10:19:25;12.30;;;11.80;;
22068;SDS011;13887;57.196;-2.100;2022-07-06T10:21:52;11.50;;;11.10;;
22068;SDS011;13887;57.196;-2.100;2022-07-06T10:24:21;12.20;;;11.80;;
22068;SDS011;13887;57.196;-2.100;2022-07-06T10:26:48;11.63;;;11.23;;
22068;SDS011;13887;57.196;-2.100;2022-07-06T10:29:14;12.97;;;12.50;;
22068;SDS011;13887;57.196;-2.100;2022-07-06T10:31:45;11.80;;;11.40;;
22068;SDS011;13887;57.196;-2.100;2022-07-06T10:34:14;12.10;;;11.63;;
22068;SDS011;13887;57.196;-2.100;2022-07-06T10:36:44;11.80;;;11.40;;
22068;SDS011;13887;57.196;-2.100;2022-07-06T10:39:14;11.90;;;11.50;;
22068;SDS011;13887;57.196;-2.100;2022-07-06T10:41:59;11.77;;;11.37;;
22068;SDS011;13887;57.196;-2.100;2022-07-06T10:44:26;11.30;;;10.90;;
22068;SDS011;13887;57.196;-2.100;2022-07-06T10:46:53;11.47;;;11.07;;
22068;SDS011;13887;57.196;-2.100;2022-07-06T10:49:21;11.73;;;11.33;;
22068;SDS011;13887;57.196;-2.100;2022-07-06T10:52:09;11.83;;;11.33;;
22068;SDS011;13887;57.196;-2.100;2022-07-06T10:54:38;12.10;;;11.70;;
22068;SDS011;13887;57.196;-2.100;2022-07-06T10:57:09;11.80;;;11.40;;
22068;SDS011;13887;57.196;-2.100;2022-07-06T10:59:36;12.30;;;11.80;;
22068;SDS011;13887;57.196;-2.100;2022-07-06T11:02:15;11.73;;;11.33;;
22068;SDS011;13887;57.196;-2.100;2022-07-06T11:04:46;11.60;;;11.20;;
22068;SDS011;13887;57.196;-2.100;2022-07-06T11:07:14;11.73;;;11.33;;
22068;SDS011;13887;57.196;-2.100;2022-07-06T11:10:03;11.77;;;11.37;;
22068;SDS011;13887;57.196;-2.100;2022-07-06T11:12:28;11.40;;;11.00;;
22068;SDS011;13887;57.196;-2.100;2022-07-06T11:14:55;11.73;;;11.30;;
22068;SDS011;13887;57.196;-2.100;2022-07-06T11:17:21;11.80;;;11.40;;
22068;SDS011;13887;57.196;-2.100;2022-07-06T11:19:49;11.80;;;11.40;;
22068;SDS011;13887;57.196;-2.100;2022-07-06T11:22:17;12.00;;;11.50;;
22068;SDS011;13887;57.196;-2.100;2022-07-06T11:24:46;11.80;;;11.40;;
22068;SDS011;13887;57.196;-2.100;2022-07-06T11:27:13;11.83;;;11.43;;
22068;SDS011;13887;57.196;-2.100;2022-07-06T11:29:40;11.33;;;10.83;;
22068;SDS011;13887;57.196;-2.100;2022-07-06T11:32:07;11.57;;;11.10;;
22068;SDS011;13887;57.196;-2.100;2022-07-06T11:34:37;11.80;;;11.40;;
22068;SDS011;13887;57.196;-2.100;2022-07-06T11:37:07;11.60;;;11.20;;
22068;SDS011;13887;57.196;-2.100;2022-07-06T11:39:39;12.13;;;11.53;;
22068;SDS011;13887;57.196;-2.100;2022-07-06T11:42:06;11.53;;;11.13;;
22068;SDS011;13887;57.196;-2.100;2022-07-06T11:44:34;11.63;;;11.23;;
22068;SDS011;13887;57.196;-2.100;2022-07-06T11:47:01;11.70;;;11.30;;
22068;SDS011;13887;57.196;-2.100;2022-07-06T11:49:32;11.90;;;11.50;;
22068;SDS011;13887;57.196;-2.100;2022-07-06T11:52:08;12.10;;;11.70;;
22068;SDS011;13887;57.196;-2.100;2022-07-06T11:54:36;11.90;;;11.50;;
22068;SDS011;13887;57.196;-2.100;2022-07-06T11:57:03;12.37;;;11.77;;
22068;SDS011;13887;57.196;-2.100;2022-07-06T11:59:30;11.90;;;11.47;;
22068;SDS011;13887;57.196;-2.100;2022-07-06T12:01:59;12.57;;;12.17;;
22068;SDS011;13887;57.196;-2.100;2022-07-06T12:04:33;12.70;;;12.30;;
22068;SDS011;13887;57.196;-2.100;2022-07-06T12:07:01;12.43;;;12.03;;
22068;SDS011;13887;57.196;-2.100;2022-07-06T12:09:32;12.50;;;11.90;;
22068;SDS011;13887;57.196;-2.100;2022-07-06T12:12:00;12.77;;;12.27;;
22068;SDS011;13887;57.196;-2.100;2022-07-06T12:14:28;12.70;;;12.20;;
22068;SDS011;13887;57.196;-2.100;2022-07-06T12:16:55;12.80;;;12.30;;
22068;SDS011;13887;57.196;-2.100;2022-07-06T12:19:22;12.10;;;11.70;;
22068;SDS011;13887;57.196;-2.100;2022-07-06T12:21:50;11.90;;;11.50;;
22068;SDS011;13887;57.196;-2.100;2022-07-06T12:24:17;12.60;;;12.10;;
22068;SDS011;13887;57.196;-2.100;2022-07-06T12:26:48;12.50;;;12.00;;
22068;SDS011;13887;57.196;-2.100;2022-07-06T12:29:16;11.70;;;11.30;;
22068;SDS011;13887;57.196;-2.100;2022-07-06T12:31:44;12.23;;;11.60;;
22068;SDS011;13887;57.196;-2.100;2022-07-06T12:34:18;12.10;;;11.70;;
22068;SDS011;13887;57.196;-2.100;2022-07-06T12:36:55;11.97;;;11.47;;
22068;SDS011;13887;57.196;-2.100;2022-07-06T12:39:32;11.93;;;11.47;;
22068;SDS011;13887;57.196;-2.100;2022-07-06T12:42:13;12.50;;;11.93;;
22068;SDS011;13887;57.196;-2.100;2022-07-06T12:44:46;12.40;;;12.00;;
22068;SDS011;13887;57.196;-2.100;2022-07-06T12:47:17;12.50;;;12.10;;
22068;SDS011;13887;57.196;-2.100;2022-07-06T12:49:52;11.93;;;11.53;;
22068;SDS011;13887;57.196;-2.100;2022-07-06T12:52:32;12.60;;;12.10;;
22068;SDS011;13887;57.196;-2.100;2022-07-06T12:54:59;12.53;;;12.03;;
22068;SDS011;13887;57.196;-2.100;2022-07-06T12:57:47;12.40;;;11.90;;
22068;SDS011;13887;57.196;-2.100;2022-07-06T13:00:14;12.30;;;11.90;;
22068;SDS011;13887;57.196;-2.100;2022-07-06T13:02:43;12.20;;;11.80;;
22068;SDS011;13887;57.196;-2.100;2022-07-06T13:05:31;11.90;;;11.50;;
22068;SDS011;13887;57.196;-2.100;2022-07-06T13:07:58;12.10;;;11.70;;
22068;SDS011;13887;57.196;-2.100;2022-07-06T13:10:25;12.10;;;11.60;;
22068;SDS011;13887;57.196;-2.100;2022-07-06T13:12:52;12.60;;;12.20;;
22068;SDS011;13887;57.196;-2.100;2022-07-06T13:15:18;12.60;;;12.10;;
22068;SDS011;13887;57.196;-2.100;2022-07-06T13:17:44;12.27;;;11.77;;
22068;SDS011;13887;57.196;-2.100;2022-07-06T13:20:12;12.70;;;12.20;;
22068;SDS011;13887;57.196;-2.100;2022-07-06T13:22:39;12.47;;;11.97;;
22068;SDS011;13887;57.196;-2.100;2022-07-06T13:25:06;12.33;;;11.83;;
22068;SDS011;13887;57.196;-2.100;2022-07-06T13:27:32;12.33;;;11.93;;
22068;SDS011;13887;57.196;-2.100;2022-07-06T13:29:59;12.97;;;12.37;;
22068;SDS011;13887;57.196;-2.100;2022-07-06T13:32:26;12.73;;;12.27;;
22068;SDS011;13887;57.196;-2.100;2022-07-06T13:34:52;12.20;;;11.80;;
22068;SDS011;13887;57.196;-2.100;2022-07-06T13:37:19;12.07;;;11.67;;
22068;SDS011;13887;57.196;-2.100;2022-07-06T13:39:46;12.30;;;11.80;;
22068;SDS011;13887;57.196;-2.100;2022-07-06T13:42:12;12.27;;;11.87;;
22068;SDS011;13887;57.196;-2.100;2022-07-06T13:44:39;12.20;;;11.80;;
22068;SDS011;13887;57.196;-2.100;2022-07-06T13:47:05;12.17;;;11.77;;
22068;SDS011;13887;57.196;-2.100;2022-07-06T13:49:31;12.30;;;11.90;;
22068;SDS011;13887;57.196;-2.100;2022-07-06T13:51:57;12.47;;;11.87;;
22068;SDS011;13887;57.196;-2.100;2022-07-06T13:54:29;12.40;;;12.00;;
22068;SDS011;13887;57.196;-2.100;2022-07-06T13:56:56;12.17;;;11.77;;
22068;SDS011;13887;57.196;-2.100;2022-07-06T13:59:22;12.67;;;12.07;;
22068;SDS011;13887;57.196;-2.100;2022-07-06T14:01:48;12.07;;;11.57;;
22068;SDS011;13887;57.196;-2.100;2022-07-06T14:04:15;11.90;;;11.40;;
22068;SDS011;13887;57.196;-2.100;2022-07-06T14:06:41;11.93;;;11.53;;
22068;SDS011;13887;57.196;-2.100;2022-07-06T14:09:08;11.60;;;11.20;;
22068;SDS011;13887;57.196;-2.100;2022-07-06T14:11:34;11.70;;;11.30;;
22068;SDS011;13887;57.196;-2.100;2022-07-06T14:14:00;11.20;;;10.80;;
22068;SDS011;13887;57.196;-2.100;2022-07-06T14:16:27;11.97;;;11.20;;
22068;SDS011;13887;57.196;-2.100;2022-07-06T14:18:53;11.40;;;11.00;;
22068;SDS011;13887;57.196;-2.100;2022-07-06T14:21:19;11.40;;;11.00;;
22068;SDS011;13887;57.196;-2.100;2022-07-06T14:23:46;11.83;;;11.43;;